Aérodrome :
LOGIN :

S'inscrire | Disclaimer

   EN    FR    IT 

 










Légende :    VFR   VFR Marginal   IFR   IFR Intensif   IFR Très Intensif
Visi : 
Plafond : 
>= 8 km
>= 3000ft
5 à 8 km
1000 à 3000 ft
1500m à 5 km
500 à 1000 ft
800 à 1500m
200 à 500 ft
< 800m
< 200 ft
Symboles :   Orages  Brouillard  Fortes neiges  Fortes précipitations  Vent > 20 kt
SIGMETs :   Divers  Orages  Givrage  Turbulence  Onde Orograph.  Cendres Volcan.






- Altitude de l'aérodrome : 574 ft
- Code IATA : TEQ


LTBU - Corlu

DERNIER METAR :
  • 200850Z 02021G31KT 9999 FEW025 BKN080 04/M02 Q1035 RMK RWY22 02020KT

METARs EXPIRÉS :
  • 200820Z 02021KT 9999 FEW025 BKN080 04/M02 Q1034 RMK RWY22 01020G30KT
  • 200750Z 02021G31KT 9999 FEW025 BKN080 03/M02 Q1034 RMK RWY22 01020KT
  • 200720Z 02021KT 9999 FEW025 BKN080 03/M02 Q1033 RMK RWY22 01020KT
  • 200650Z 01021KT 9999 FEW025 BKN080 03/M02 Q1033 RMK RWY22 01022KT
  • 200620Z 02020KT 9999 FEW025 BKN080 02/M01 Q1032 RMK RWY22 02020KT
  • 200550Z 01021G32KT 9999 FEW025 BKN080 02/M01 Q1032 RMK RWY22 01020KT

TAF TAF LTBU
Valide du 20 à 06h jusqu'au 21 à 06h UTC


200440Z 2006/2106 36018G28KT 9999 SCT015 BKN025
TEMPO 2006/2010 -RA
PROB30
TEMPO 2012/2015 -RA
BECMG 2015/2018 36015KT



MET'MAP, la Météo Aéronautique d'un coup d'oeil ! - Copyright ORBIFLY Décembre 2007 - Disclaimer

ORBIFLY MET'MAP TEAM :

Programmation & Développement : Alexandra Zaïnal
Sur une idée originale de : Baudouin d'Aumeries
Assistance à la programmation : Marc-Olivier Méhu
Soutien technique & logistique : Manuel Goepfert

Contact : metmap@orbifly.com




SOURCES & CREDITS :

   NOAA